Weather at Ringsted Airfield

Public forecast

Using degrees Celsius for public forecast. Weather courtesy of forecast.io.

Current aviation weather report (METAR) for Ringsted Airfield

2024/05/30 10:20 (retrieved 21 minutes ago)

EKRS 301020Z AUTO VRB05KT 9999 BKN024/// BKN039/// OVC190/// 18/17 Q1007

Closest aviation forecast (TAF) to Ringsted Airfield

Closest forecast is Copenhagen Kastrup Airport, 31.1 nm (57.6 km) ENE.

2024/05/30 06:30 (retrieved 4 hours ago)

TAF EKCH 300508Z 3006/3106 13012KT 9999 FEW020 BKN040 TEMPO 3006/3007 4000 SHRA BR BKN012 BKN020CB TEMPO 3007/3009 BKN012 FEW020CB TEMPO 3009/3024 FEW020CB TEMPO 3100/3106 BKN008 SCT020CB